sensor_id;sensor_type;location;lat;lon;timestamp;P1;durP1;ratioP1;P2;durP2;ratioP2
9228;SDS011;4649;42.644;23.284;2022-10-14T00:01:24;3.00;;;2.80;;
9228;SDS011;4649;42.644;23.284;2022-10-14T00:03:57;3.50;;;3.30;;
9228;SDS011;4649;42.644;23.284;2022-10-14T00:06:25;5.07;;;4.07;;
9228;SDS011;4649;42.644;23.284;2022-10-14T00:08:55;3.73;;;3.53;;
9228;SDS011;4649;42.644;23.284;2022-10-14T00:11:27;5.47;;;3.67;;
9228;SDS011;4649;42.644;23.284;2022-10-14T00:13:58;3.40;;;2.77;;
9228;SDS011;4649;42.644;23.284;2022-10-14T00:16:27;2.97;;;2.77;;
9228;SDS011;4649;42.644;23.284;2022-10-14T00:18:58;3.23;;;3.03;;
9228;SDS011;4649;42.644;23.284;2022-10-14T00:21:25;5.17;;;2.90;;
9228;SDS011;4649;42.644;23.284;2022-10-14T00:23:53;3.80;;;3.00;;
9228;SDS011;4649;42.644;23.284;2022-10-14T00:26:24;3.00;;;2.80;;
9228;SDS011;4649;42.644;23.284;2022-10-14T00:28:52;7.60;;;3.03;;
9228;SDS011;4649;42.644;23.284;2022-10-14T00:31:20;3.77;;;2.43;;
9228;SDS011;4649;42.644;23.284;2022-10-14T00:33:48;3.07;;;2.60;;
9228;SDS011;4649;42.644;23.284;2022-10-14T00:36:18;2.60;;;2.40;;
9228;SDS011;4649;42.644;23.284;2022-10-14T00:38:46;2.83;;;2.70;;
9228;SDS011;4649;42.644;23.284;2022-10-14T00:41:15;2.53;;;2.10;;
9228;SDS011;4649;42.644;23.284;2022-10-14T00:43:53;2.33;;;2.20;;
9228;SDS011;4649;42.644;23.284;2022-10-14T00:46:29;2.70;;;2.50;;
9228;SDS011;4649;42.644;23.284;2022-10-14T00:48:57;2.97;;;2.50;;
9228;SDS011;4649;42.644;23.284;2022-10-14T00:51:28;4.17;;;3.07;;
9228;SDS011;4649;42.644;23.284;2022-10-14T00:53:56;3.27;;;2.53;;
9228;SDS011;4649;42.644;23.284;2022-10-14T00:56:24;4.50;;;2.60;;
9228;SDS011;4649;42.644;23.284;2022-10-14T00:58:55;4.70;;;2.53;;
9228;SDS011;4649;42.644;23.284;2022-10-14T01:01:24;2.43;;;2.20;;
9228;SDS011;4649;42.644;23.284;2022-10-14T01:03:52;5.63;;;2.83;;
9228;SDS011;4649;42.644;23.284;2022-10-14T01:06:21;9.17;;;2.77;;
9228;SDS011;4649;42.644;23.284;2022-10-14T01:09:01;2.77;;;2.60;;
9228;SDS011;4649;42.644;23.284;2022-10-14T01:11:37;3.03;;;1.83;;
9228;SDS011;4649;42.644;23.284;2022-10-14T01:14:12;3.77;;;2.20;;
9228;SDS011;4649;42.644;23.284;2022-10-14T01:16:51;2.60;;;2.40;;
9228;SDS011;4649;42.644;23.284;2022-10-14T01:22:28;3.17;;;2.37;;
9228;SDS011;4649;42.644;23.284;2022-10-14T01:25:05;1.90;;;1.80;;
9228;SDS011;4649;42.644;23.284;2022-10-14T01:27:48;3.23;;;2.60;;
9228;SDS011;4649;42.644;23.284;2022-10-14T01:30:32;2.50;;;2.30;;
9228;SDS011;4649;42.644;23.284;2022-10-14T01:33:05;1.73;;;1.67;;
9228;SDS011;4649;42.644;23.284;2022-10-14T01:35:40;5.07;;;1.90;;
9228;SDS011;4649;42.644;23.284;2022-10-14T01:38:16;1.87;;;1.77;;
9228;SDS011;4649;42.644;23.284;2022-10-14T01:40:49;2.30;;;1.80;;
9228;SDS011;4649;42.644;23.284;2022-10-14T01:43:23;2.13;;;1.93;;
9228;SDS011;4649;42.644;23.284;2022-10-14T01:45:54;1.60;;;1.53;;
9228;SDS011;4649;42.644;23.284;2022-10-14T01:48:25;2.37;;;1.60;;
9228;SDS011;4649;42.644;23.284;2022-10-14T01:50:58;2.13;;;1.47;;
9228;SDS011;4649;42.644;23.284;2022-10-14T01:53:28;3.37;;;1.70;;
9228;SDS011;4649;42.644;23.284;2022-10-14T01:55:59;1.60;;;1.50;;
9228;SDS011;4649;42.644;23.284;2022-10-14T01:58:31;2.83;;;1.67;;
9228;SDS011;4649;42.644;23.284;2022-10-14T02:01:03;3.77;;;1.63;;
9228;SDS011;4649;42.644;23.284;2022-10-14T02:03:38;6.70;;;1.90;;
9228;SDS011;4649;42.644;23.284;2022-10-14T02:06:07;1.97;;;1.70;;
9228;SDS011;4649;42.644;23.284;2022-10-14T02:08:52;4.10;;;1.90;;
9228;SDS011;4649;42.644;23.284;2022-10-14T02:11:31;1.53;;;1.43;;
9228;SDS011;4649;42.644;23.284;2022-10-14T02:14:07;2.47;;;1.70;;
9228;SDS011;4649;42.644;23.284;2022-10-14T02:16:50;4.07;;;1.60;;
9228;SDS011;4649;42.644;23.284;2022-10-14T02:19:27;5.47;;;1.97;;
9228;SDS011;4649;42.644;23.284;2022-10-14T02:22:00;2.10;;;1.60;;
9228;SDS011;4649;42.644;23.284;2022-10-14T02:24:31;3.30;;;1.43;;
9228;SDS011;4649;42.644;23.284;2022-10-14T02:27:02;1.67;;;1.57;;
9228;SDS011;4649;42.644;23.284;2022-10-14T02:29:32;3.27;;;1.07;;
9228;SDS011;4649;42.644;23.284;2022-10-14T02:32:06;1.23;;;1.13;;
9228;SDS011;4649;42.644;23.284;2022-10-14T02:34:35;4.80;;;1.70;;
9228;SDS011;4649;42.644;23.284;2022-10-14T02:37:04;2.20;;;2.00;;
9228;SDS011;4649;42.644;23.284;2022-10-14T02:39:34;1.63;;;1.50;;
9228;SDS011;4649;42.644;23.284;2022-10-14T02:42:05;2.30;;;1.40;;
9228;SDS011;4649;42.644;23.284;2022-10-14T02:44:32;1.40;;;1.37;;
9228;SDS011;4649;42.644;23.284;2022-10-14T02:47:01;1.60;;;1.50;;
9228;SDS011;4649;42.644;23.284;2022-10-14T02:49:30;1.63;;;1.60;;
9228;SDS011;4649;42.644;23.284;2022-10-14T02:51:58;2.00;;;1.60;;
9228;SDS011;4649;42.644;23.284;2022-10-14T02:54:25;2.73;;;1.57;;
9228;SDS011;4649;42.644;23.284;2022-10-14T02:56:52;1.30;;;1.30;;
9228;SDS011;4649;42.644;23.284;2022-10-14T02:59:19;3.23;;;1.67;;
9228;SDS011;4649;42.644;23.284;2022-10-14T03:01:46;3.03;;;1.50;;
9228;SDS011;4649;42.644;23.284;2022-10-14T03:04:14;1.63;;;1.63;;
9228;SDS011;4649;42.644;23.284;2022-10-14T03:06:42;4.57;;;1.90;;
9228;SDS011;4649;42.644;23.284;2022-10-14T03:09:09;2.63;;;1.87;;
9228;SDS011;4649;42.644;23.284;2022-10-14T03:11:36;6.33;;;1.80;;
9228;SDS011;4649;42.644;23.284;2022-10-14T03:14:05;2.50;;;1.50;;
9228;SDS011;4649;42.644;23.284;2022-10-14T03:16:32;2.00;;;1.90;;
9228;SDS011;4649;42.644;23.284;2022-10-14T03:18:59;1.87;;;1.77;;
9228;SDS011;4649;42.644;23.284;2022-10-14T03:21:26;1.63;;;1.63;;
9228;SDS011;4649;42.644;23.284;2022-10-14T03:23:56;1.83;;;1.83;;
9228;SDS011;4649;42.644;23.284;2022-10-14T03:26:25;2.40;;;2.13;;
9228;SDS011;4649;42.644;23.284;2022-10-14T03:28:52;2.23;;;1.83;;
9228;SDS011;4649;42.644;23.284;2022-10-14T03:31:20;2.13;;;2.07;;
9228;SDS011;4649;42.644;23.284;2022-10-14T03:33:47;1.73;;;1.63;;
9228;SDS011;4649;42.644;23.284;2022-10-14T03:36:17;2.10;;;1.90;;
9228;SDS011;4649;42.644;23.284;2022-10-14T03:38:45;2.20;;;2.10;;
9228;SDS011;4649;42.644;23.284;2022-10-14T03:41:13;1.60;;;1.50;;
9228;SDS011;4649;42.644;23.284;2022-10-14T03:43:41;2.87;;;1.87;;
9228;SDS011;4649;42.644;23.284;2022-10-14T03:46:08;2.10;;;2.00;;
9228;SDS011;4649;42.644;23.284;2022-10-14T03:48:34;4.67;;;2.13;;
9228;SDS011;4649;42.644;23.284;2022-10-14T03:51:02;1.80;;;1.80;;
9228;SDS011;4649;42.644;23.284;2022-10-14T03:53:31;2.57;;;1.73;;
9228;SDS011;4649;42.644;23.284;2022-10-14T03:55:58;4.10;;;1.70;;
9228;SDS011;4649;42.644;23.284;2022-10-14T03:58:27;1.60;;;1.60;;
9228;SDS011;4649;42.644;23.284;2022-10-14T04:00:54;2.50;;;2.33;;
9228;SDS011;4649;42.644;23.284;2022-10-14T04:03:22;1.90;;;1.90;;
9228;SDS011;4649;42.644;23.284;2022-10-14T04:05:49;4.50;;;2.03;;
9228;SDS011;4649;42.644;23.284;2022-10-14T04:08:16;2.40;;;2.30;;
9228;SDS011;4649;42.644;23.284;2022-10-14T04:10:43;2.93;;;2.73;;
9228;SDS011;4649;42.644;23.284;2022-10-14T04:20:24;3.17;;;2.97;;
9228;SDS011;4649;42.644;23.284;2022-10-14T04:22:51;5.37;;;2.90;;
9228;SDS011;4649;42.644;23.284;2022-10-14T04:25:18;3.40;;;2.80;;
9228;SDS011;4649;42.644;23.284;2022-10-14T04:27:45;2.50;;;2.40;;
9228;SDS011;4649;42.644;23.284;2022-10-14T04:30:12;3.17;;;2.97;;
9228;SDS011;4649;42.644;23.284;2022-10-14T04:32:38;4.47;;;4.27;;
9228;SDS011;4649;42.644;23.284;2022-10-14T04:35:06;7.33;;;4.00;;
9228;SDS011;4649;42.644;23.284;2022-10-14T04:37:36;4.57;;;4.30;;
9228;SDS011;4649;42.644;23.284;2022-10-14T04:40:04;4.47;;;3.40;;
9228;SDS011;4649;42.644;23.284;2022-10-14T04:42:32;11.87;;;5.23;;
9228;SDS011;4649;42.644;23.284;2022-10-14T04:44:59;5.13;;;3.50;;
9228;SDS011;4649;42.644;23.284;2022-10-14T04:47:26;3.90;;;3.70;;
9228;SDS011;4649;42.644;23.284;2022-10-14T04:49:53;3.60;;;3.40;;
9228;SDS011;4649;42.644;23.284;2022-10-14T04:52:20;4.07;;;3.80;;
9228;SDS011;4649;42.644;23.284;2022-10-14T04:54:48;4.67;;;4.47;;
9228;SDS011;4649;42.644;23.284;2022-10-14T04:57:15;6.73;;;4.87;;
9228;SDS011;4649;42.644;23.284;2022-10-14T04:59:42;5.77;;;5.37;;
9228;SDS011;4649;42.644;23.284;2022-10-14T05:02:09;4.17;;;3.97;;
9228;SDS011;4649;42.644;23.284;2022-10-14T05:04:36;4.87;;;4.57;;
9228;SDS011;4649;42.644;23.284;2022-10-14T05:07:03;4.40;;;4.20;;
9228;SDS011;4649;42.644;23.284;2022-10-14T05:09:30;6.60;;;4.37;;
9228;SDS011;4649;42.644;23.284;2022-10-14T05:11:59;4.10;;;3.70;;
9228;SDS011;4649;42.644;23.284;2022-10-14T05:14:25;5.27;;;3.93;;
9228;SDS011;4649;42.644;23.284;2022-10-14T05:16:53;5.20;;;3.50;;
9228;SDS011;4649;42.644;23.284;2022-10-14T05:19:20;4.03;;;3.67;;
9228;SDS011;4649;42.644;23.284;2022-10-14T05:21:47;4.37;;;4.07;;
9228;SDS011;4649;42.644;23.284;2022-10-14T05:24:14;6.80;;;3.63;;
9228;SDS011;4649;42.644;23.284;2022-10-14T05:26:41;6.23;;;3.43;;
9228;SDS011;4649;42.644;23.284;2022-10-14T05:29:11;3.40;;;3.30;;
9228;SDS011;4649;42.644;23.284;2022-10-14T05:31:37;7.97;;;4.07;;
9228;SDS011;4649;42.644;23.284;2022-10-14T05:34:04;4.13;;;3.90;;
9228;SDS011;4649;42.644;23.284;2022-10-14T05:36:31;5.70;;;4.40;;
9228;SDS011;4649;42.644;23.284;2022-10-14T05:38:58;4.93;;;4.60;;
9228;SDS011;4649;42.644;23.284;2022-10-14T05:41:25;5.27;;;3.13;;
9228;SDS011;4649;42.644;23.284;2022-10-14T05:43:52;4.53;;;3.63;;
9228;SDS011;4649;42.644;23.284;2022-10-14T05:46:21;4.00;;;3.33;;
9228;SDS011;4649;42.644;23.284;2022-10-14T05:48:48;3.10;;;2.90;;
9228;SDS011;4649;42.644;23.284;2022-10-14T05:51:15;7.43;;;3.10;;
9228;SDS011;4649;42.644;23.284;2022-10-14T05:53:45;7.37;;;4.10;;
9228;SDS011;4649;42.644;23.284;2022-10-14T05:56:12;4.20;;;3.20;;
9228;SDS011;4649;42.644;23.284;2022-10-14T05:58:39;4.40;;;2.93;;
9228;SDS011;4649;42.644;23.284;2022-10-14T06:01:07;3.27;;;3.07;;
9228;SDS011;4649;42.644;23.284;2022-10-14T06:03:36;4.90;;;3.10;;
9228;SDS011;4649;42.644;23.284;2022-10-14T06:06:03;3.17;;;2.97;;
9228;SDS011;4649;42.644;23.284;2022-10-14T06:08:30;3.33;;;2.80;;
9228;SDS011;4649;42.644;23.284;2022-10-14T06:10:57;2.80;;;2.67;;
9228;SDS011;4649;42.644;23.284;2022-10-14T06:13:28;3.93;;;3.63;;
9228;SDS011;4649;42.644;23.284;2022-10-14T06:15:55;3.43;;;3.23;;
9228;SDS011;4649;42.644;23.284;2022-10-14T06:18:22;2.73;;;2.63;;
9228;SDS011;4649;42.644;23.284;2022-10-14T06:20:54;5.37;;;2.70;;
9228;SDS011;4649;42.644;23.284;2022-10-14T06:23:21;3.13;;;3.03;;
9228;SDS011;4649;42.644;23.284;2022-10-14T06:25:48;6.77;;;3.10;;
9228;SDS011;4649;42.644;23.284;2022-10-14T06:28:14;3.40;;;3.20;;
9228;SDS011;4649;42.644;23.284;2022-10-14T06:30:41;3.07;;;2.87;;
9228;SDS011;4649;42.644;23.284;2022-10-14T06:33:08;3.23;;;3.03;;
9228;SDS011;4649;42.644;23.284;2022-10-14T06:35:35;3.53;;;3.23;;
9228;SDS011;4649;42.644;23.284;2022-10-14T06:38:03;10.60;;;3.27;;
9228;SDS011;4649;42.644;23.284;2022-10-14T06:40:30;4.47;;;3.33;;
9228;SDS011;4649;42.644;23.284;2022-10-14T06:42:57;4.00;;;3.70;;
9228;SDS011;4649;42.644;23.284;2022-10-14T06:45:24;3.80;;;3.47;;
9228;SDS011;4649;42.644;23.284;2022-10-14T06:47:51;6.07;;;4.40;;
9228;SDS011;4649;42.644;23.284;2022-10-14T06:50:18;3.90;;;3.40;;
9228;SDS011;4649;42.644;23.284;2022-10-14T06:52:45;9.77;;;3.10;;
9228;SDS011;4649;42.644;23.284;2022-10-14T06:55:14;5.53;;;3.80;;
9228;SDS011;4649;42.644;23.284;2022-10-14T06:57:42;7.20;;;3.47;;
9228;SDS011;4649;42.644;23.284;2022-10-14T07:00:09;4.27;;;3.33;;
9228;SDS011;4649;42.644;23.284;2022-10-14T07:02:36;4.43;;;3.37;;
9228;SDS011;4649;42.644;23.284;2022-10-14T07:05:04;4.30;;;3.60;;
9228;SDS011;4649;42.644;23.284;2022-10-14T07:07:31;3.40;;;3.10;;
9228;SDS011;4649;42.644;23.284;2022-10-14T07:09:58;5.93;;;3.20;;
9228;SDS011;4649;42.644;23.284;2022-10-14T07:12:26;5.67;;;3.63;;
9228;SDS011;4649;42.644;23.284;2022-10-14T07:14:53;4.83;;;3.80;;
9228;SDS011;4649;42.644;23.284;2022-10-14T07:17:21;10.97;;;4.43;;
9228;SDS011;4649;42.644;23.284;2022-10-14T07:19:47;31.87;;;5.63;;
9228;SDS011;4649;42.644;23.284;2022-10-14T07:22:15;4.37;;;3.07;;
9228;SDS011;4649;42.644;23.284;2022-10-14T07:24:41;8.37;;;3.60;;
9228;SDS011;4649;42.644;23.284;2022-10-14T07:27:08;5.40;;;3.27;;
9228;SDS011;4649;42.644;23.284;2022-10-14T07:29:37;3.57;;;3.27;;
9228;SDS011;4649;42.644;23.284;2022-10-14T07:32:04;4.07;;;3.13;;
9228;SDS011;4649;42.644;23.284;2022-10-14T07:34:31;3.53;;;3.33;;
9228;SDS011;4649;42.644;23.284;2022-10-14T07:36:58;3.07;;;2.90;;
9228;SDS011;4649;42.644;23.284;2022-10-14T07:39:25;3.13;;;2.97;;
9228;SDS011;4649;42.644;23.284;2022-10-14T07:41:53;3.87;;;3.30;;
9228;SDS011;4649;42.644;23.284;2022-10-14T07:44:20;5.13;;;4.60;;
9228;SDS011;4649;42.644;23.284;2022-10-14T07:46:48;3.20;;;2.80;;
9228;SDS011;4649;42.644;23.284;2022-10-14T07:49:16;22.50;;;3.43;;
9228;SDS011;4649;42.644;23.284;2022-10-14T07:51:44;16.10;;;3.07;;
9228;SDS011;4649;42.644;23.284;2022-10-14T07:54:13;8.60;;;3.70;;
9228;SDS011;4649;42.644;23.284;2022-10-14T07:56:43;5.93;;;3.57;;
9228;SDS011;4649;42.644;23.284;2022-10-14T07:59:13;7.03;;;3.10;;
9228;SDS011;4649;42.644;23.284;2022-10-14T08:01:44;3.37;;;3.17;;
9228;SDS011;4649;42.644;23.284;2022-10-14T08:04:13;5.13;;;3.67;;
9228;SDS011;4649;42.644;23.284;2022-10-14T08:06:40;6.53;;;2.97;;
9228;SDS011;4649;42.644;23.284;2022-10-14T08:09:08;7.03;;;3.37;;
9228;SDS011;4649;42.644;23.284;2022-10-14T08:11:36;3.13;;;3.03;;
9228;SDS011;4649;42.644;23.284;2022-10-14T08:14:03;9.23;;;3.47;;
9228;SDS011;4649;42.644;23.284;2022-10-14T08:16:31;5.77;;;2.93;;
9228;SDS011;4649;42.644;23.284;2022-10-14T08:19:00;3.20;;;3.00;;
9228;SDS011;4649;42.644;23.284;2022-10-14T08:21:31;3.63;;;3.33;;
9228;SDS011;4649;42.644;23.284;2022-10-14T08:23:58;3.30;;;3.00;;
9228;SDS011;4649;42.644;23.284;2022-10-14T08:26:27;3.53;;;3.10;;
9228;SDS011;4649;42.644;23.284;2022-10-14T08:28:55;3.27;;;3.07;;
9228;SDS011;4649;42.644;23.284;2022-10-14T08:31:22;3.43;;;2.87;;
9228;SDS011;4649;42.644;23.284;2022-10-14T08:33:49;4.27;;;2.40;;
9228;SDS011;4649;42.644;23.284;2022-10-14T08:36:16;2.70;;;2.60;;
9228;SDS011;4649;42.644;23.284;2022-10-14T08:38:45;6.30;;;2.53;;
9228;SDS011;4649;42.644;23.284;2022-10-14T08:41:28;3.77;;;2.50;;
9228;SDS011;4649;42.644;23.284;2022-10-14T08:44:08;1.90;;;1.80;;
9228;SDS011;4649;42.644;23.284;2022-10-14T08:46:39;9.57;;;2.07;;
9228;SDS011;4649;42.644;23.284;2022-10-14T08:49:11;3.13;;;1.80;;
9228;SDS011;4649;42.644;23.284;2022-10-14T08:51:43;2.23;;;2.13;;
9228;SDS011;4649;42.644;23.284;2022-10-14T08:54:19;20.47;;;2.77;;
9228;SDS011;4649;42.644;23.284;2022-10-14T08:56:54;3.63;;;2.50;;
9228;SDS011;4649;42.644;23.284;2022-10-14T08:59:22;9.33;;;2.47;;
9228;SDS011;4649;42.644;23.284;2022-10-14T09:01:51;4.73;;;2.33;;
9228;SDS011;4649;42.644;23.284;2022-10-14T09:04:22;15.50;;;2.73;;
9228;SDS011;4649;42.644;23.284;2022-10-14T09:06:49;5.23;;;1.60;;
9228;SDS011;4649;42.644;23.284;2022-10-14T09:09:21;1.73;;;1.63;;
9228;SDS011;4649;42.644;23.284;2022-10-14T09:11:52;1.83;;;1.73;;
9228;SDS011;4649;42.644;23.284;2022-10-14T09:14:24;2.00;;;1.90;;
9228;SDS011;4649;42.644;23.284;2022-10-14T09:16:55;11.00;;;2.07;;
9228;SDS011;4649;42.644;23.284;2022-10-14T09:19:30;4.87;;;1.93;;
9228;SDS011;4649;42.644;23.284;2022-10-14T09:21:59;2.97;;;2.77;;
9228;SDS011;4649;42.644;23.284;2022-10-14T09:24:29;3.67;;;1.70;;
9228;SDS011;4649;42.644;23.284;2022-10-14T09:27:00;1.60;;;1.50;;
9228;SDS011;4649;42.644;23.284;2022-10-14T09:29:31;1.30;;;1.30;;
9228;SDS011;4649;42.644;23.284;2022-10-14T09:32:03;2.20;;;2.00;;
9228;SDS011;4649;42.644;23.284;2022-10-14T09:34:36;5.37;;;2.17;;
9228;SDS011;4649;42.644;23.284;2022-10-14T09:37:10;9.10;;;2.33;;
9228;SDS011;4649;42.644;23.284;2022-10-14T09:39:51;3.10;;;1.73;;
9228;SDS011;4649;42.644;23.284;2022-10-14T09:42:21;2.27;;;2.07;;
9228;SDS011;4649;42.644;23.284;2022-10-14T09:45:02;7.30;;;1.90;;
9228;SDS011;4649;42.644;23.284;2022-10-14T09:47:31;6.90;;;2.30;;
9228;SDS011;4649;42.644;23.284;2022-10-14T09:50:06;2.20;;;2.10;;
9228;SDS011;4649;42.644;23.284;2022-10-14T09:52:35;3.37;;;1.70;;
9228;SDS011;4649;42.644;23.284;2022-10-14T09:55:06;2.17;;;2.07;;
9228;SDS011;4649;42.644;23.284;2022-10-14T09:57:43;2.53;;;2.30;;
9228;SDS011;4649;42.644;23.284;2022-10-14T10:00:22;2.70;;;2.50;;
9228;SDS011;4649;42.644;23.284;2022-10-14T10:02:51;2.67;;;2.47;;
9228;SDS011;4649;42.644;23.284;2022-10-14T10:05:22;6.00;;;2.63;;
9228;SDS011;4649;42.644;23.284;2022-10-14T10:08:00;14.53;;;2.57;;
9228;SDS011;4649;42.644;23.284;2022-10-14T10:10:33;6.30;;;2.63;;
9228;SDS011;4649;42.644;23.284;2022-10-14T10:13:00;1.73;;;1.73;;
9228;SDS011;4649;42.644;23.284;2022-10-14T10:15:28;2.20;;;2.10;;
9228;SDS011;4649;42.644;23.284;2022-10-14T10:17:54;2.20;;;2.10;;
9228;SDS011;4649;42.644;23.284;2022-10-14T10:20:23;4.40;;;2.60;;
9228;SDS011;4649;42.644;23.284;2022-10-14T10:22:57;7.50;;;2.30;;
9228;SDS011;4649;42.644;23.284;2022-10-14T10:25:42;3.33;;;2.50;;
9228;SDS011;4649;42.644;23.284;2022-10-14T10:28:14;1.60;;;1.50;;
9228;SDS011;4649;42.644;23.284;2022-10-14T10:30:47;12.40;;;2.17;;
9228;SDS011;4649;42.644;23.284;2022-10-14T10:33:25;4.83;;;2.13;;
9228;SDS011;4649;42.644;23.284;2022-10-14T10:36:06;1.20;;;1.20;;
9228;SDS011;4649;42.644;23.284;2022-10-14T10:38:46;1.63;;;1.53;;
9228;SDS011;4649;42.644;23.284;2022-10-14T10:41:28;1.60;;;1.50;;
9228;SDS011;4649;42.644;23.284;2022-10-14T10:44:14;1.97;;;1.30;;
9228;SDS011;4649;42.644;23.284;2022-10-14T10:47:05;4.20;;;2.43;;
9228;SDS011;4649;42.644;23.284;2022-10-14T10:49:45;1.77;;;1.67;;
9228;SDS011;4649;42.644;23.284;2022-10-14T10:55:17;4.13;;;1.40;;
9228;SDS011;4649;42.644;23.284;2022-10-14T10:57:58;1.40;;;1.40;;
9228;SDS011;4649;42.644;23.284;2022-10-14T11:00:34;5.37;;;2.00;;
9228;SDS011;4649;42.644;23.284;2022-10-14T11:03:15;3.57;;;1.70;;
9228;SDS011;4649;42.644;23.284;2022-10-14T11:05:55;1.40;;;1.40;;
9228;SDS011;4649;42.644;23.284;2022-10-14T11:08:30;1.27;;;1.27;;
9228;SDS011;4649;42.644;23.284;2022-10-14T11:11:26;5.57;;;1.20;;
9228;SDS011;4649;42.644;23.284;2022-10-14T11:14:29;2.50;;;1.50;;
9228;SDS011;4649;42.644;23.284;2022-10-14T11:17:05;1.20;;;1.20;;
9228;SDS011;4649;42.644;23.284;2022-10-14T11:19:39;1.37;;;1.27;;
9228;SDS011;4649;42.644;23.284;2022-10-14T11:22:16;5.23;;;0.93;;
9228;SDS011;4649;42.644;23.284;2022-10-14T11:24:59;2.77;;;1.17;;
9228;SDS011;4649;42.644;23.284;2022-10-14T11:27:40;1.00;;;1.00;;
9228;SDS011;4649;42.644;23.284;2022-10-14T11:30:16;0.73;;;0.73;;
9228;SDS011;4649;42.644;23.284;2022-10-14T11:32:52;5.20;;;1.10;;
9228;SDS011;4649;42.644;23.284;2022-10-14T11:35:33;5.43;;;1.10;;
9228;SDS011;4649;42.644;23.284;2022-10-14T11:41:06;0.83;;;0.83;;
9228;SDS011;4649;42.644;23.284;2022-10-14T11:43:40;1.23;;;1.23;;
9228;SDS011;4649;42.644;23.284;2022-10-14T11:46:15;0.80;;;0.80;;
9228;SDS011;4649;42.644;23.284;2022-10-14T11:48:46;6.47;;;1.07;;
9228;SDS011;4649;42.644;23.284;2022-10-14T11:51:18;1.07;;;0.60;;
9228;SDS011;4649;42.644;23.284;2022-10-14T11:53:52;2.10;;;0.53;;
9228;SDS011;4649;42.644;23.284;2022-10-14T11:56:31;1.67;;;1.37;;
9228;SDS011;4649;42.644;23.284;2022-10-14T11:59:07;2.43;;;0.80;;
9228;SDS011;4649;42.644;23.284;2022-10-14T12:01:56;1.23;;;0.40;;
9228;SDS011;4649;42.644;23.284;2022-10-14T12:04:29;0.40;;;0.40;;
9228;SDS011;4649;42.644;23.284;2022-10-14T12:06:59;0.63;;;0.63;;
9228;SDS011;4649;42.644;23.284;2022-10-14T12:09:33;1.33;;;0.70;;
9228;SDS011;4649;42.644;23.284;2022-10-14T12:12:04;0.40;;;0.40;;
9228;SDS011;4649;42.644;23.284;2022-10-14T12:14:34;2.30;;;0.80;;
9228;SDS011;4649;42.644;23.284;2022-10-14T12:17:06;6.50;;;0.90;;
9228;SDS011;4649;42.644;23.284;2022-10-14T12:19:43;1.60;;;0.70;;
9228;SDS011;4649;42.644;23.284;2022-10-14T12:22:13;1.03;;;0.90;;
9228;SDS011;4649;42.644;23.284;2022-10-14T12:24:45;1.87;;;1.10;;
9228;SDS011;4649;42.644;23.284;2022-10-14T12:27:15;1.23;;;0.73;;
9228;SDS011;4649;42.644;23.284;2022-10-14T12:29:45;0.60;;;0.60;;
9228;SDS011;4649;42.644;23.284;2022-10-14T12:32:20;0.70;;;0.70;;
9228;SDS011;4649;42.644;23.284;2022-10-14T12:34:49;1.73;;;0.47;;
9228;SDS011;4649;42.644;23.284;2022-10-14T12:40:27;1.00;;;0.90;;
9228;SDS011;4649;42.644;23.284;2022-10-14T12:45:49;0.70;;;0.70;;
9228;SDS011;4649;42.644;23.284;2022-10-14T12:48:22;1.97;;;0.80;;
9228;SDS011;4649;42.644;23.284;2022-10-14T12:50:54;0.70;;;0.70;;
9228;SDS011;4649;42.644;23.284;2022-10-14T12:53:31;0.90;;;0.90;;
9228;SDS011;4649;42.644;23.284;2022-10-14T12:56:00;2.30;;;1.13;;
9228;SDS011;4649;42.644;23.284;2022-10-14T12:58:31;1.80;;;0.83;;
9228;SDS011;4649;42.644;23.284;2022-10-14T13:01:02;0.70;;;0.70;;
9228;SDS011;4649;42.644;23.284;2022-10-14T13:03:35;0.90;;;0.90;;
9228;SDS011;4649;42.644;23.284;2022-10-14T13:06:28;4.10;;;1.00;;
9228;SDS011;4649;42.644;23.284;2022-10-14T13:12:10;0.77;;;0.77;;
9228;SDS011;4649;42.644;23.284;2022-10-14T13:14:58;0.80;;;0.80;;
9228;SDS011;4649;42.644;23.284;2022-10-14T13:17:27;0.47;;;0.47;;
9228;SDS011;4649;42.644;23.284;2022-10-14T13:19:57;1.50;;;0.63;;
9228;SDS011;4649;42.644;23.284;2022-10-14T13:22:34;0.70;;;0.70;;
9228;SDS011;4649;42.644;23.284;2022-10-14T13:25:09;0.70;;;0.70;;
9228;SDS011;4649;42.644;23.284;2022-10-14T13:27:41;4.00;;;0.70;;
9228;SDS011;4649;42.644;23.284;2022-10-14T13:30:20;0.67;;;0.67;;
9228;SDS011;4649;42.644;23.284;2022-10-14T13:32:56;2.63;;;0.90;;
9228;SDS011;4649;42.644;23.284;2022-10-14T13:35:29;3.47;;;1.10;;
9228;SDS011;4649;42.644;23.284;2022-10-14T13:37:59;1.80;;;0.73;;
9228;SDS011;4649;42.644;23.284;2022-10-14T13:40:29;4.83;;;0.80;;
9228;SDS011;4649;42.644;23.284;2022-10-14T13:43:05;1.40;;;0.97;;
9228;SDS011;4649;42.644;23.284;2022-10-14T13:45:39;2.10;;;1.17;;
9228;SDS011;4649;42.644;23.284;2022-10-14T13:48:10;1.50;;;0.67;;
9228;SDS011;4649;42.644;23.284;2022-10-14T13:50:42;0.60;;;0.60;;
9228;SDS011;4649;42.644;23.284;2022-10-14T13:53:13;0.50;;;0.50;;
9228;SDS011;4649;42.644;23.284;2022-10-14T13:55:42;0.87;;;0.87;;
9228;SDS011;4649;42.644;23.284;2022-10-14T13:58:11;4.17;;;0.50;;
9228;SDS011;4649;42.644;23.284;2022-10-14T14:00:40;0.70;;;0.70;;
9228;SDS011;4649;42.644;23.284;2022-10-14T14:03:14;0.80;;;0.80;;
9228;SDS011;4649;42.644;23.284;2022-10-14T14:05:50;0.70;;;0.50;;
9228;SDS011;4649;42.644;23.284;2022-10-14T14:08:20;0.50;;;0.50;;
9228;SDS011;4649;42.644;23.284;2022-10-14T14:10:53;2.93;;;0.93;;
9228;SDS011;4649;42.644;23.284;2022-10-14T14:13:21;0.70;;;0.70;;
9228;SDS011;4649;42.644;23.284;2022-10-14T14:15:49;2.37;;;0.60;;
9228;SDS011;4649;42.644;23.284;2022-10-14T14:18:27;2.67;;;0.70;;
9228;SDS011;4649;42.644;23.284;2022-10-14T14:21:00;1.10;;;1.10;;
9228;SDS011;4649;42.644;23.284;2022-10-14T14:23:28;0.67;;;0.67;;
9228;SDS011;4649;42.644;23.284;2022-10-14T14:25:55;3.07;;;0.53;;
9228;SDS011;4649;42.644;23.284;2022-10-14T14:28:23;0.80;;;0.80;;
9228;SDS011;4649;42.644;23.284;2022-10-14T14:30:56;0.70;;;0.70;;
9228;SDS011;4649;42.644;23.284;2022-10-14T14:33:26;0.77;;;0.77;;
9228;SDS011;4649;42.644;23.284;2022-10-14T14:35:56;0.93;;;0.93;;
9228;SDS011;4649;42.644;23.284;2022-10-14T14:38:26;1.20;;;0.60;;
9228;SDS011;4649;42.644;23.284;2022-10-14T14:40:59;0.70;;;0.70;;
9228;SDS011;4649;42.644;23.284;2022-10-14T14:43:27;0.63;;;0.63;;
9228;SDS011;4649;42.644;23.284;2022-10-14T14:45:55;4.53;;;1.00;;
9228;SDS011;4649;42.644;23.284;2022-10-14T14:48:23;0.70;;;0.70;;
9228;SDS011;4649;42.644;23.284;2022-10-14T14:50:50;0.73;;;0.70;;
9228;SDS011;4649;42.644;23.284;2022-10-14T14:53:19;0.97;;;0.90;;
9228;SDS011;4649;42.644;23.284;2022-10-14T14:55:57;0.70;;;0.70;;
9228;SDS011;4649;42.644;23.284;2022-10-14T14:58:28;0.90;;;0.83;;
9228;SDS011;4649;42.644;23.284;2022-10-14T15:01:00;1.50;;;0.83;;
9228;SDS011;4649;42.644;23.284;2022-10-14T15:03:29;1.00;;;1.00;;
9228;SDS011;4649;42.644;23.284;2022-10-14T15:06:01;0.70;;;0.70;;
9228;SDS011;4649;42.644;23.284;2022-10-14T15:08:31;0.93;;;0.73;;
9228;SDS011;4649;42.644;23.284;2022-10-14T15:11:01;0.70;;;0.70;;
9228;SDS011;4649;42.644;23.284;2022-10-14T15:13:42;0.50;;;0.50;;
9228;SDS011;4649;42.644;23.284;2022-10-14T15:19:11;1.30;;;1.20;;
9228;SDS011;4649;42.644;23.284;2022-10-14T15:24:57;1.03;;;1.03;;
9228;SDS011;4649;42.644;23.284;2022-10-14T15:27:29;0.90;;;0.90;;
9228;SDS011;4649;42.644;23.284;2022-10-14T15:30:25;0.90;;;0.90;;
9228;SDS011;4649;42.644;23.284;2022-10-14T15:32:56;7.73;;;0.80;;
9228;SDS011;4649;42.644;23.284;2022-10-14T15:35:24;0.90;;;0.90;;
9228;SDS011;4649;42.644;23.284;2022-10-14T15:37:52;0.80;;;0.80;;
9228;SDS011;4649;42.644;23.284;2022-10-14T15:40:20;0.93;;;0.93;;
9228;SDS011;4649;42.644;23.284;2022-10-14T15:42:50;0.70;;;0.70;;
9228;SDS011;4649;42.644;23.284;2022-10-14T15:45:17;0.70;;;0.70;;
9228;SDS011;4649;42.644;23.284;2022-10-14T15:47:44;1.00;;;1.00;;
9228;SDS011;4649;42.644;23.284;2022-10-14T15:50:18;0.80;;;0.80;;
9228;SDS011;4649;42.644;23.284;2022-10-14T15:52:46;0.70;;;0.70;;
9228;SDS011;4649;42.644;23.284;2022-10-14T15:55:15;3.00;;;0.97;;